This is the latest recevied weather packets stored in our database for station/object DL3GCR-10. If no packets are shown the sender has not sent any weather packets the latest 10 day(s).
| Time | Temp. | Humidity | Pressure | Rain* | Wind** | Luminosity | Snow |
|---|---|---|---|---|---|---|---|
| 1777347428 | 8.89° C | 59% | 1018 hPa | - | - | - | - |
| 1777346528 | 9.44° C | 58% | 1018.1 hPa | - | - | - | - |
| 1777345628 | 9.44° C | 58% | 1018.1 hPa | - | - | - | - |
| 1777344728 | 10° C | 56% | 1018.1 hPa | - | - | - | - |
| 1777343828 | 10° C | 58% | 1018.1 hPa | - | - | - | - |
| 1777342927 | 10.56° C | 57% | 1018.1 hPa | - | - | - | - |
| 1777342027 | 10.56° C | 56% | 1018.1 hPa | - | - | - | - |
| 1777340226 | 11.11° C | 53% | 1018.2 hPa | - | - | - | - |
| 1777333925 | 12.22° C | 49% | 1018.6 hPa | - | - | - | - |
| 1777328523 | 12.78° C | 47% | 1018.9 hPa | - | - | - | - |
| 1777313220 | 18.89° C | 31% | 1019 hPa | - | - | - | - |
| 1777311418 | 19.44° C | 29% | 1018.9 hPa | - | - | - | - |
| 1777310518 | 20° C | 28% | 1018.8 hPa | - | - | - | - |
| 1777308718 | 20.56° C | 26% | 1019.1 hPa | - | - | - | - |
| 1777307818 | 21.11° C | 27% | 1019.1 hPa | - | - | - | - |
| 1777306921 | 21.67° C | 25% | 1019.2 hPa | - | - | - | - |
| 1777306021 | 22.78° C | 25% | 1019.3 hPa | - | - | - | - |
| 1777304220 | 22.78° C | 25% | 1019.8 hPa | - | - | - | - |
| 1777301520 | 23.89° C | 24% | 1020 hPa | - | - | - | - |
| 1777300619 | 23.89° C | 25% | 1020.2 hPa | - | - | - | - |
| 1777299719 | 23.89° C | 25% | 1020.2 hPa | - | - | - | - |
| 1777298819 | 23.89° C | 25% | 1020.5 hPa | - | - | - | - |
| 1777297018 | 23.89° C | 27% | 1020.8 hPa | - | - | - | - |
| 1777296118 | 25° C | 26% | 1021.1 hPa | - | - | - | - |
| 1777295217 | 24.44° C | 26% | 1021.2 hPa | - | - | - | - |
* Rain since midnight (hover to see other rain measurements)
** Current wind speed in m/s (hover to see current wind gust speed)